»·PEaware :: N328AP KSLC-KPHX

N328AP :: KSLC-KPHX

FLIGHT INFORMATION

Flight Status: Arrived
Operator: Privately registered:
United States
More flights under this callsign
Pilot: Adam P. (15512)
Aircraft: BOMBARDIER BD-100 CHALLENGER 300
(CL30)
More flights by this aircraft type
Origin: KSLC Salt Lake City Intl
United States
Destination: KPHX Phoenix Sky Harbor Intl
United States
More flights between these airports :: More routes between these airports
Route: WEVIC6 BCE J11 CORKR TENTS BRUSR1
File this flight plan on PilotEdge
Remarks:
Altitude:
(Current/Filed)
35,000ft
Speed:
(Current/Filed)
468kts
Departed: 27-Sep-17 08:06 PM
Arrived: 27-Sep-17 09:39 PM
Distance/Time
Traveled:
442nm/1:32
Distance/Time
To Go:
Arrived

Flight Plot

Page will automatically refresh every two minutes.

Flight plan parsing failed; only flown route is shown


Map Options




Map Legend


Flown Route
Filed Route
Departure Airport
Arrival Airport
Navaid (VOR, NDB)
Fix

Horizontal Profiles

Position Reports

Time Latitude Longitude Heading Altitude Ground
Speed
27-Sep-17 19:45 40.775668 -111.959403 357 4226ft 0kts
27-Sep-17 19:46 40.775668 -111.959403 357 4226ft 0kts
27-Sep-17 19:47 40.775668 -111.959403 357 4226ft 0kts
27-Sep-17 19:48 40.775668 -111.959403 357 4226ft 0kts
27-Sep-17 19:49 40.775668 -111.959403 357 4226ft 0kts
27-Sep-17 19:50 40.775668 -111.959403 357 4226ft 0kts
27-Sep-17 19:51 40.775668 -111.959403 357 4226ft 0kts
27-Sep-17 19:52 40.775668 -111.959403 357 4226ft 0kts
27-Sep-17 19:53 40.775668 -111.959403 357 4226ft 0kts
27-Sep-17 19:54 40.775668 -111.959403 357 4226ft 0kts
27-Sep-17 19:55 40.775668 -111.959403 357 4226ft 0kts
27-Sep-17 19:56 40.775668 -111.959403 357 4226ft 0kts
27-Sep-17 19:57 40.775668 -111.959403 357 4226ft 0kts
27-Sep-17 19:58 40.775668 -111.959403 357 4226ft 0kts
27-Sep-17 19:59 40.775668 -111.959403 357 4226ft 0kts
27-Sep-17 20:00 40.775668 -111.959403 357 4226ft 0kts
27-Sep-17 20:01 40.775668 -111.959403 357 4226ft 0kts
27-Sep-17 20:02 40.775668 -111.959403 357 4226ft 0kts
27-Sep-17 20:03 40.775668 -111.959403 357 4226ft 0kts
27-Sep-17 20:04 40.777706 -111.960211 2 4226ft 15kts
27-Sep-17 20:05 40.784206 -111.960029 1 4222ft 28kts
27-Sep-17 20:06 40.791205 -111.960009 0 4222ft 29kts
27-Sep-17 20:07 40.797148 -111.960032 3 4222ft 15kts
27-Sep-17 20:08 40.799346 -111.960364 289 4222ft 0kts
27-Sep-17 20:09 40.798934 -111.961382 211 4222ft 9kts
27-Sep-17 20:10 40.782945 -111.961909 173 4245ft 163kts
27-Sep-17 20:11 40.732008 -111.960547 177 7270ft 197kts
27-Sep-17 20:12 40.675968 -111.958728 176 10659ft 221kts
27-Sep-17 20:13 40.598123 -111.956192 177 13208ft 305kts
27-Sep-17 20:14 40.513122 -111.953560 177 17078ft 318kts
27-Sep-17 20:15 40.423886 -111.949313 176 20402ft 333kts
27-Sep-17 20:16 40.330394 -111.942908 176 23314ft 348kts
27-Sep-17 20:17 40.230329 -111.945805 186 24705ft 401kts
27-Sep-17 20:18 40.122647 -111.961697 185 28421ft 389kts
27-Sep-17 20:19 40.009059 -111.978245 185 30038ft 423kts
27-Sep-17 20:20 39.893915 -111.995045 186 32053ft 437kts
27-Sep-17 20:21 39.773272 -112.012615 186 33892ft 449kts
27-Sep-17 20:22 39.648956 -112.030676 186 35219ft 468kts
27-Sep-17 20:23 39.523811 -112.048769 186 35217ft 451kts
27-Sep-17 20:24 39.399962 -112.066491 186 35220ft 454kts
27-Sep-17 20:25 39.275513 -112.084152 185 35219ft 453kts
27-Sep-17 20:26 39.152009 -112.101621 186 35218ft 454kts
27-Sep-17 20:27 39.028961 -112.118959 185 35220ft 454kts
27-Sep-17 20:28 38.904377 -112.136515 185 35219ft 453kts
27-Sep-17 20:29 38.781568 -112.153650 185 35218ft 454kts
27-Sep-17 20:30 38.657491 -112.170938 185 35238ft 454kts
27-Sep-17 20:31 38.533381 -112.188175 185 35275ft 454kts
27-Sep-17 20:32 38.409137 -112.205380 185 35267ft 454kts
27-Sep-17 20:33 38.285360 -112.222452 185 35307ft 454kts
27-Sep-17 20:34 38.161732 -112.239452 185 35338ft 454kts
27-Sep-17 20:35 38.037561 -112.256466 185 35335ft 454kts
27-Sep-17 20:36 37.913556 -112.273406 185 35341ft 453kts
27-Sep-17 20:37 37.791581 -112.290003 185 35340ft 453kts
27-Sep-17 20:38 37.667239 -112.305284 181 35341ft 453kts
27-Sep-17 20:39 37.542781 -112.312867 182 35340ft 453kts
27-Sep-17 20:40 37.418042 -112.320464 182 35340ft 453kts
27-Sep-17 20:41 37.293759 -112.328027 181 35338ft 453kts
27-Sep-17 20:42 37.169391 -112.335552 181 35337ft 453kts
27-Sep-17 20:43 37.045096 -112.342976 182 35336ft 446kts
27-Sep-17 20:44 36.924029 -112.350133 185 35328ft 446kts
27-Sep-17 20:45 36.803812 -112.357525 184 35274ft 447kts
27-Sep-17 20:46 36.680608 -112.364943 184 35264ft 446kts
27-Sep-17 20:47 36.557459 -112.372299 184 35264ft 447kts
27-Sep-17 20:48 36.433988 -112.379653 184 35263ft 447kts
27-Sep-17 20:49 36.336100 -112.385462 184 35263ft 447kts
27-Sep-17 20:50 36.233518 -112.391533 184 35263ft 447kts
27-Sep-17 20:51 36.089439 -112.400050 185 35262ft 447kts
27-Sep-17 20:52 35.966583 -112.410653 186 35262ft 446kts
27-Sep-17 20:53 35.844554 -112.421312 186 35265ft 446kts
27-Sep-17 20:54 35.742314 -112.430216 186 35264ft 446kts
27-Sep-17 20:55 35.600362 -112.442528 186 35236ft 428kts
27-Sep-17 20:56 35.505202 -112.450323 182 35095ft 397kts
27-Sep-17 20:57 35.397988 -112.432812 174 32906ft 388kts
27-Sep-17 20:58 35.293820 -112.412767 173 30602ft 379kts
27-Sep-17 20:59 35.189697 -112.392397 172 29291ft 405kts
27-Sep-17 21:00 35.060908 -112.364467 172 29241ft 403kts
27-Sep-17 21:01 34.969711 -112.344534 174 29256ft 406kts
27-Sep-17 21:02 34.870153 -112.323453 172 28230ft 391kts
27-Sep-17 21:03 34.792371 -112.306168 172 27267ft 347kts
27-Sep-17 21:04 34.698849 -112.285627 171 26353ft 341kts
27-Sep-17 21:05 34.606283 -112.265320 170 25381ft 338kts
27-Sep-17 21:06 34.514908 -112.245317 169 24379ft 335kts
27-Sep-17 21:07 34.424565 -112.224555 166 23329ft 332kts
27-Sep-17 21:08 34.335805 -112.201661 165 21211ft 331kts
27-Sep-17 21:09 34.246493 -112.178524 165 20061ft 326kts
27-Sep-17 21:10 34.158198 -112.155693 164 18772ft 327kts
27-Sep-17 21:11 34.070451 -112.130362 158 17446ft 325kts
27-Sep-17 21:12 33.985347 -112.095924 158 16101ft 324kts
27-Sep-17 21:13 33.889374 -112.056983 158 13841ft 321kts
27-Sep-17 21:14 33.819337 -112.028556 159 12591ft 316kts
27-Sep-17 21:15 33.738485 -111.995829 159 10506ft 305kts
27-Sep-17 21:16 33.668053 -111.967430 159 9099ft 256kts
27-Sep-17 21:17 33.601819 -111.940631 160 6680ft 249kts
27-Sep-17 21:18 33.540372 -111.908096 118 5010ft 240kts
27-Sep-17 21:19 33.525400 -111.838556 141 4993ft 220kts
27-Sep-17 21:20 33.470624 -111.817189 162 4997ft 200kts
27-Sep-17 21:21 33.425487 -111.839612 266 4768ft 202kts
27-Sep-17 21:22 33.428777 -111.899273 270 3696ft 159kts
27-Sep-17 21:23 33.428812 -111.950591 270 2053ft 135kts
27-Sep-17 21:24 33.428810 -111.994577 270 2304ft 178kts
27-Sep-17 21:25 33.428090 -112.064193 269 4090ft 242kts
27-Sep-17 21:26 33.390533 -112.124094 171 4975ft 258kts
27-Sep-17 21:27 33.335829 -112.072975 138 4987ft 249kts
27-Sep-17 21:28 33.281708 -112.017381 139 4998ft 265kts
27-Sep-17 21:29 33.225098 -111.961220 140 5000ft 261kts
27-Sep-17 21:30 33.158124 -111.938059 173 5007ft 257kts
27-Sep-17 21:31 33.087590 -111.927714 173 5013ft 255kts
27-Sep-17 21:32 33.065718 -111.866606 43 5008ft 260kts
27-Sep-17 21:33 33.125816 -111.886181 320 5011ft 251kts
27-Sep-17 21:34 33.182515 -111.886696 67 5009ft 253kts
27-Sep-17 21:35 33.208636 -111.819486 10 4696ft 233kts
27-Sep-17 21:36 33.265124 -111.827102 344 4966ft 183kts
27-Sep-17 21:37 33.314698 -111.846476 337 5008ft 201kts
27-Sep-17 21:38 33.360955 -111.871919 331 4703ft 167kts
27-Sep-17 21:39 33.396476 -111.898310 325 4177ft 153kts
27-Sep-17 21:40 33.422789 -111.930444 296 3032ft 131kts
27-Sep-17 21:41 33.428783 -111.971615 269 1722ft 123kts
27-Sep-17 21:42 33.428836 -112.012004 270 1121ft 113kts
27-Sep-17 21:43 33.427748 -112.019570 270 1116ft 13kts
27-Sep-17 21:44 33.427094 -112.021706 275 1115ft 5kts
27-Sep-17 21:45 33.427123 -112.022696 267 1115ft 0kts

Navigation Log

Ident Type
Flight plan parsing failed, navigation log unavailable